sensor_id;sensor_type;location;lat;lon;timestamp;pressure;altitude;pressure_sealevel;temperature;humidity
4167;BME280;2097;51.104;7.150;2022-08-11T00:01:43;99486.44;;;20.01;45.81
4167;BME280;2097;51.104;7.150;2022-08-11T00:04:11;99494.22;;;20.02;45.63
4167;BME280;2097;51.104;7.150;2022-08-11T00:06:40;99472.47;;;19.89;45.78
4167;BME280;2097;51.104;7.150;2022-08-11T00:09:10;99491.94;;;19.98;45.86
4167;BME280;2097;51.104;7.150;2022-08-11T00:11:40;99498.31;;;19.95;45.74
4167;BME280;2097;51.104;7.150;2022-08-11T00:14:13;99489.81;;;19.92;45.88
4167;BME280;2097;51.104;7.150;2022-08-11T00:16:43;99487.41;;;19.89;46.03
4167;BME280;2097;51.104;7.150;2022-08-11T00:19:20;99488.53;;;19.86;45.78
4167;BME280;2097;51.104;7.150;2022-08-11T00:21:48;99483.50;;;19.83;45.95
4167;BME280;2097;51.104;7.150;2022-08-11T00:24:15;99489.63;;;19.84;46.20
4167;BME280;2097;51.104;7.150;2022-08-11T00:26:46;99484.47;;;19.82;45.88
4167;BME280;2097;51.104;7.150;2022-08-11T00:29:14;99461.63;;;19.62;46.24
4167;BME280;2097;51.104;7.150;2022-08-11T00:31:47;99479.72;;;19.76;45.90
4167;BME280;2097;51.104;7.150;2022-08-11T00:34:17;99487.06;;;19.73;46.20
4167;BME280;2097;51.104;7.150;2022-08-11T00:36:48;99482.88;;;19.70;46.21
4167;BME280;2097;51.104;7.150;2022-08-11T00:39:18;99490.19;;;19.67;46.25
4167;BME280;2097;51.104;7.150;2022-08-11T00:41:59;99485.31;;;19.62;46.19
4167;BME280;2097;51.104;7.150;2022-08-11T00:44:44;99482.25;;;19.57;46.11
4167;BME280;2097;51.104;7.150;2022-08-11T00:47:23;99480.81;;;19.53;46.07
4167;BME280;2097;51.104;7.150;2022-08-11T00:50:02;99472.91;;;19.53;46.16
4167;BME280;2097;51.104;7.150;2022-08-11T00:55:55;99485.22;;;19.53;46.16
4167;BME280;2097;51.104;7.150;2022-08-11T00:59:05;99479.78;;;19.45;45.79
4167;BME280;2097;51.104;7.150;2022-08-11T01:01:53;99484.91;;;19.47;46.12
4167;BME280;2097;51.104;7.150;2022-08-11T01:20:09;99486.16;;;19.63;45.70
4167;BME280;2097;51.104;7.150;2022-08-11T01:35:33;99467.94;;;19.40;45.36
4167;BME280;2097;51.104;7.150;2022-08-11T01:38:37;99481.06;;;19.51;45.89
4167;BME280;2097;51.104;7.150;2022-08-11T01:41:30;99485.75;;;19.47;45.94
4167;BME280;2097;51.104;7.150;2022-08-11T01:45:01;99482.75;;;19.52;45.69
4167;BME280;2097;51.104;7.150;2022-08-11T01:47:34;99477.47;;;19.52;45.65
4167;BME280;2097;51.104;7.150;2022-08-11T01:53:27;99474.63;;;19.44;46.08
4167;BME280;2097;51.104;7.150;2022-08-11T01:56:05;99477.47;;;19.52;46.12
4167;BME280;2097;51.104;7.150;2022-08-11T01:58:42;99474.84;;;19.52;45.82
4167;BME280;2097;51.104;7.150;2022-08-11T02:01:26;99470.38;;;19.52;45.71
4167;BME280;2097;51.104;7.150;2022-08-11T02:03:58;99480.22;;;19.50;45.84
4167;BME280;2097;51.104;7.150;2022-08-11T02:06:39;99482.75;;;19.52;45.84
4167;BME280;2097;51.104;7.150;2022-08-11T02:09:32;99476.50;;;19.52;45.85
4167;BME280;2097;51.104;7.150;2022-08-11T02:12:14;99482.59;;;19.53;45.68
4167;BME280;2097;51.104;7.150;2022-08-11T02:15:01;99473.38;;;19.58;45.80
4167;BME280;2097;51.104;7.150;2022-08-11T02:17:40;99473.81;;;19.63;45.83
4167;BME280;2097;51.104;7.150;2022-08-11T02:20:16;99474.91;;;19.61;45.73
4167;BME280;2097;51.104;7.150;2022-08-11T02:23:12;99477.22;;;19.54;45.71
4167;BME280;2097;51.104;7.150;2022-08-11T02:26:03;99474.69;;;19.53;45.94
4167;BME280;2097;51.104;7.150;2022-08-11T02:28:37;99481.63;;;19.54;45.65
4167;BME280;2097;51.104;7.150;2022-08-11T02:31:12;99478.28;;;19.52;45.96
4167;BME280;2097;51.104;7.150;2022-08-11T02:34:08;99482.41;;;19.45;46.16
4167;BME280;2097;51.104;7.150;2022-08-11T02:36:46;99479.06;;;19.43;46.16
4167;BME280;2097;51.104;7.150;2022-08-11T02:39:17;99472.38;;;19.39;46.25
4167;BME280;2097;51.104;7.150;2022-08-11T02:41:51;99473.47;;;19.37;46.30
4167;BME280;2097;51.104;7.150;2022-08-11T02:44:45;99456.56;;;19.19;46.52
4167;BME280;2097;51.104;7.150;2022-08-11T02:47:26;99474.94;;;19.30;46.46
4167;BME280;2097;51.104;7.150;2022-08-11T02:50:02;99476.16;;;19.26;46.61
4167;BME280;2097;51.104;7.150;2022-08-11T02:52:35;99478.09;;;19.24;46.64
4167;BME280;2097;51.104;7.150;2022-08-11T02:55:21;99476.41;;;19.23;46.73
4167;BME280;2097;51.104;7.150;2022-08-11T02:57:56;99477.47;;;19.20;46.78
4167;BME280;2097;51.104;7.150;2022-08-11T03:00:25;99442.13;;;19.02;46.75
4167;BME280;2097;51.104;7.150;2022-08-11T03:03:06;99471.38;;;19.20;46.36
4167;BME280;2097;51.104;7.150;2022-08-11T03:05:57;99477.00;;;19.15;46.94
4167;BME280;2097;51.104;7.150;2022-08-11T03:08:44;99480.00;;;19.11;46.83
4167;BME280;2097;51.104;7.150;2022-08-11T03:11:21;99474.25;;;19.06;47.30
4167;BME280;2097;51.104;7.150;2022-08-11T03:14:14;99476.44;;;19.01;47.25
4167;BME280;2097;51.104;7.150;2022-08-11T03:17:09;99468.06;;;18.96;47.34
4167;BME280;2097;51.104;7.150;2022-08-11T03:19:47;99474.44;;;18.93;47.41
4167;BME280;2097;51.104;7.150;2022-08-11T03:22:21;99475.53;;;18.91;47.48
4167;BME280;2097;51.104;7.150;2022-08-11T03:24:56;99479.13;;;18.90;47.62
4167;BME280;2097;51.104;7.150;2022-08-11T03:27:45;99474.09;;;18.87;47.55
4167;BME280;2097;51.104;7.150;2022-08-11T03:30:16;99475.63;;;18.89;47.56
4167;BME280;2097;51.104;7.150;2022-08-11T03:32:53;99473.13;;;18.88;47.82
4167;BME280;2097;51.104;7.150;2022-08-11T03:35:46;99472.44;;;18.86;47.76
4167;BME280;2097;51.104;7.150;2022-08-11T03:38:21;99476.13;;;18.83;47.76
4167;BME280;2097;51.104;7.150;2022-08-11T03:41:05;99476.75;;;18.76;47.88
4167;BME280;2097;51.104;7.150;2022-08-11T03:44:02;99476.50;;;18.68;47.92
4167;BME280;2097;51.104;7.150;2022-08-11T03:46:38;99452.78;;;18.37;47.92
4167;BME280;2097;51.104;7.150;2022-08-11T03:49:24;99468.66;;;18.57;48.22
4167;BME280;2097;51.104;7.150;2022-08-11T03:51:57;99473.06;;;18.56;48.28
4167;BME280;2097;51.104;7.150;2022-08-11T03:54:49;99475.84;;;18.55;48.21
4167;BME280;2097;51.104;7.150;2022-08-11T03:57:45;99474.25;;;18.52;48.34
4167;BME280;2097;51.104;7.150;2022-08-11T04:00:34;99475.69;;;18.45;48.52
4167;BME280;2097;51.104;7.150;2022-08-11T04:09:54;99468.28;;;18.39;48.47
4167;BME280;2097;51.104;7.150;2022-08-11T04:15:51;99471.28;;;18.35;48.75
4167;BME280;2097;51.104;7.150;2022-08-11T04:21:52;99467.13;;;18.33;48.85
4167;BME280;2097;51.104;7.150;2022-08-11T04:24:47;99475.00;;;18.33;48.88
4167;BME280;2097;51.104;7.150;2022-08-11T04:27:32;99461.69;;;18.23;48.85
4167;BME280;2097;51.104;7.150;2022-08-11T04:30:07;99471.75;;;18.29;48.91
4167;BME280;2097;51.104;7.150;2022-08-11T04:35:51;99480.38;;;18.31;49.11
4167;BME280;2097;51.104;7.150;2022-08-11T04:39:03;99479.53;;;18.31;49.21
4167;BME280;2097;51.104;7.150;2022-08-11T04:41:55;99479.41;;;18.32;49.14
4167;BME280;2097;51.104;7.150;2022-08-11T04:47:50;99479.66;;;18.40;49.12
4167;BME280;2097;51.104;7.150;2022-08-11T04:51:03;99470.69;;;18.42;49.06
4167;BME280;2097;51.104;7.150;2022-08-11T04:53:59;99479.19;;;18.46;49.12
4167;BME280;2097;51.104;7.150;2022-08-11T04:56:50;99475.34;;;18.50;49.13
4167;BME280;2097;51.104;7.150;2022-08-11T04:59:47;99476.78;;;18.54;49.06
4167;BME280;2097;51.104;7.150;2022-08-11T05:12:01;99480.91;;;18.78;48.94
4167;BME280;2097;51.104;7.150;2022-08-11T05:14:34;99487.50;;;18.84;49.00
4167;BME280;2097;51.104;7.150;2022-08-11T05:17:34;99490.22;;;18.93;48.90
4167;BME280;2097;51.104;7.150;2022-08-11T05:20:20;99486.13;;;19.00;48.60
4167;BME280;2097;51.104;7.150;2022-08-11T05:23:08;99317.91;;;18.03;48.66
4167;BME280;2097;51.104;7.150;2022-08-11T05:25:55;99489.09;;;19.18;48.55
4167;BME280;2097;51.104;7.150;2022-08-11T05:28:52;99498.28;;;19.23;48.42
4167;BME280;2097;51.104;7.150;2022-08-11T05:31:38;99481.69;;;19.23;48.20
4167;BME280;2097;51.104;7.150;2022-08-11T05:34:25;99510.53;;;19.45;48.06
4167;BME280;2097;51.104;7.150;2022-08-11T05:37:13;99511.56;;;19.53;48.30
4167;BME280;2097;51.104;7.150;2022-08-11T05:39:44;99506.75;;;19.58;48.30
4167;BME280;2097;51.104;7.150;2022-08-11T05:42:31;99508.78;;;19.65;48.19
4167;BME280;2097;51.104;7.150;2022-08-11T05:45:18;99505.34;;;19.74;48.09
4167;BME280;2097;51.104;7.150;2022-08-11T05:48:03;99508.19;;;19.82;47.94
4167;BME280;2097;51.104;7.150;2022-08-11T05:50:56;99507.28;;;19.93;47.72
4167;BME280;2097;51.104;7.150;2022-08-11T05:53:49;99503.91;;;20.02;47.85
4167;BME280;2097;51.104;7.150;2022-08-11T05:56:41;99498.50;;;20.03;47.54
4167;BME280;2097;51.104;7.150;2022-08-11T05:59:11;99515.66;;;20.18;47.73
4167;BME280;2097;51.104;7.150;2022-08-11T06:01:41;99511.53;;;20.25;47.60
4167;BME280;2097;51.104;7.150;2022-08-11T06:04:17;99520.34;;;20.35;47.41
4167;BME280;2097;51.104;7.150;2022-08-11T06:06:50;99518.56;;;20.45;47.27
4167;BME280;2097;51.104;7.150;2022-08-11T06:09:24;99516.09;;;20.53;47.07
4167;BME280;2097;51.104;7.150;2022-08-11T06:11:52;99519.88;;;20.60;47.07
4167;BME280;2097;51.104;7.150;2022-08-11T06:14:22;99515.59;;;20.68;47.03
4167;BME280;2097;51.104;7.150;2022-08-11T06:16:55;99513.97;;;20.77;47.06
4167;BME280;2097;51.104;7.150;2022-08-11T06:19:31;99515.13;;;20.84;46.95
4167;BME280;2097;51.104;7.150;2022-08-11T06:22:00;99512.53;;;20.93;46.72
4167;BME280;2097;51.104;7.150;2022-08-11T06:24:28;99515.19;;;21.03;46.45
4167;BME280;2097;51.104;7.150;2022-08-11T06:26:57;99522.97;;;21.14;46.36
4167;BME280;2097;51.104;7.150;2022-08-11T06:29:25;99514.13;;;21.24;46.11
4167;BME280;2097;51.104;7.150;2022-08-11T06:31:56;99519.41;;;21.34;46.28
4167;BME280;2097;51.104;7.150;2022-08-11T06:34:51;99518.59;;;21.43;45.83
4167;BME280;2097;51.104;7.150;2022-08-11T06:37:24;99519.41;;;21.53;45.67
4167;BME280;2097;51.104;7.150;2022-08-11T06:40:04;99513.31;;;21.62;45.73
4167;BME280;2097;51.104;7.150;2022-08-11T06:42:52;99510.66;;;21.71;45.62
4167;BME280;2097;51.104;7.150;2022-08-11T06:45:28;99512.75;;;21.77;45.35
4167;BME280;2097;51.104;7.150;2022-08-11T06:47:58;99510.25;;;21.85;45.20
4167;BME280;2097;51.104;7.150;2022-08-11T06:50:29;99262.59;;;20.47;45.00
4167;BME280;2097;51.104;7.150;2022-08-11T06:53:16;99507.72;;;22.02;44.98
4167;BME280;2097;51.104;7.150;2022-08-11T06:55:45;99497.13;;;22.02;45.08
4167;BME280;2097;51.104;7.150;2022-08-11T06:58:32;99514.06;;;22.19;45.04
4167;BME280;2097;51.104;7.150;2022-08-11T07:01:28;99521.00;;;22.29;44.88
4167;BME280;2097;51.104;7.150;2022-08-11T07:04:05;99516.84;;;22.36;44.83
4167;BME280;2097;51.104;7.150;2022-08-11T07:06:40;99510.69;;;22.45;44.76
4167;BME280;2097;51.104;7.150;2022-08-11T07:12:59;99520.34;;;22.64;44.38
4167;BME280;2097;51.104;7.150;2022-08-11T07:15:44;99498.78;;;22.59;44.34
4167;BME280;2097;51.104;7.150;2022-08-11T07:18:20;99513.06;;;22.75;44.28
4167;BME280;2097;51.104;7.150;2022-08-11T07:21:09;99513.28;;;22.82;44.02
4167;BME280;2097;51.104;7.150;2022-08-11T07:23:58;99522.53;;;22.95;44.06
4167;BME280;2097;51.104;7.150;2022-08-11T07:26:48;99525.72;;;23.08;43.70
4167;BME280;2097;51.104;7.150;2022-08-11T07:29:35;99470.22;;;22.89;43.48
4167;BME280;2097;51.104;7.150;2022-08-11T07:32:12;99526.94;;;23.31;43.17
4167;BME280;2097;51.104;7.150;2022-08-11T07:34:45;99510.16;;;23.40;43.22
4167;BME280;2097;51.104;7.150;2022-08-11T07:37:15;99501.22;;;23.41;42.75
4167;BME280;2097;51.104;7.150;2022-08-11T07:39:46;99512.00;;;23.57;43.06
4167;BME280;2097;51.104;7.150;2022-08-11T07:42:18;99515.22;;;23.68;42.87
4167;BME280;2097;51.104;7.150;2022-08-11T07:44:47;99514.47;;;23.76;42.60
4167;BME280;2097;51.104;7.150;2022-08-11T07:47:34;99515.84;;;23.80;42.72
4167;BME280;2097;51.104;7.150;2022-08-11T07:50:19;99508.94;;;23.87;42.50
4167;BME280;2097;51.104;7.150;2022-08-11T07:53:06;99507.19;;;23.95;42.45
4167;BME280;2097;51.104;7.150;2022-08-11T07:55:33;99507.09;;;24.05;41.95
4167;BME280;2097;51.104;7.150;2022-08-11T07:58:02;99506.84;;;24.16;41.76
4167;BME280;2097;51.104;7.150;2022-08-11T08:00:51;99497.94;;;24.25;41.67
4167;BME280;2097;51.104;7.150;2022-08-11T08:03:37;99504.84;;;24.43;41.31
4167;BME280;2097;51.104;7.150;2022-08-11T08:06:22;99473.44;;;24.30;41.34
4167;BME280;2097;51.104;7.150;2022-08-11T08:09:09;99507.81;;;24.65;40.96
4167;BME280;2097;51.104;7.150;2022-08-11T08:11:55;99504.84;;;24.76;41.15
4167;BME280;2097;51.104;7.150;2022-08-11T08:14:39;99509.44;;;24.92;40.87
4167;BME280;2097;51.104;7.150;2022-08-11T08:17:24;99528.56;;;25.03;40.36
4167;BME280;2097;51.104;7.150;2022-08-11T08:20:11;99509.97;;;25.03;40.43
4167;BME280;2097;51.104;7.150;2022-08-11T08:22:39;99435.91;;;24.59;40.25
4167;BME280;2097;51.104;7.150;2022-08-11T08:25:09;99507.97;;;25.13;40.18
4167;BME280;2097;51.104;7.150;2022-08-11T08:27:36;99514.34;;;25.20;40.09
4167;BME280;2097;51.104;7.150;2022-08-11T08:30:05;99519.34;;;25.23;40.21
4167;BME280;2097;51.104;7.150;2022-08-11T08:32:50;99518.69;;;25.29;39.73
4167;BME280;2097;51.104;7.150;2022-08-11T08:35:20;99519.38;;;25.39;39.89
4167;BME280;2097;51.104;7.150;2022-08-11T08:37:48;99512.41;;;25.46;39.26
4167;BME280;2097;51.104;7.150;2022-08-11T08:40:17;99513.25;;;25.54;39.27
4167;BME280;2097;51.104;7.150;2022-08-11T08:42:47;99515.94;;;25.62;38.92
4167;BME280;2097;51.104;7.150;2022-08-11T08:45:16;99514.59;;;25.66;38.68
4167;BME280;2097;51.104;7.150;2022-08-11T08:47:45;99511.91;;;25.74;38.58
4167;BME280;2097;51.104;7.150;2022-08-11T08:50:14;99516.94;;;25.85;38.70
4167;BME280;2097;51.104;7.150;2022-08-11T08:52:46;99513.09;;;25.96;38.05
4167;BME280;2097;51.104;7.150;2022-08-11T08:55:17;99506.31;;;25.93;37.97
4167;BME280;2097;51.104;7.150;2022-08-11T08:57:47;99498.13;;;25.95;37.75
4167;BME280;2097;51.104;7.150;2022-08-11T09:00:15;99517.09;;;26.08;37.40
4167;BME280;2097;51.104;7.150;2022-08-11T09:02:43;99528.41;;;26.18;37.53
4167;BME280;2097;51.104;7.150;2022-08-11T09:05:11;99525.56;;;26.27;37.23
4167;BME280;2097;51.104;7.150;2022-08-11T09:07:39;99525.22;;;26.38;36.89
4167;BME280;2097;51.104;7.150;2022-08-11T09:10:08;99520.72;;;26.47;36.92
4167;BME280;2097;51.104;7.150;2022-08-11T09:12:38;99526.19;;;26.53;36.34
4167;BME280;2097;51.104;7.150;2022-08-11T09:15:09;99522.66;;;26.61;36.15
4167;BME280;2097;51.104;7.150;2022-08-11T09:17:39;99527.31;;;26.67;35.56
4167;BME280;2097;51.104;7.150;2022-08-11T09:20:10;99522.97;;;26.73;35.63
4167;BME280;2097;51.104;7.150;2022-08-11T09:22:40;99509.16;;;26.70;35.66
4167;BME280;2097;51.104;7.150;2022-08-11T09:25:27;99397.31;;;26.16;35.41
4167;BME280;2097;51.104;7.150;2022-08-11T09:28:15;99517.16;;;27.00;35.27
4167;BME280;2097;51.104;7.150;2022-08-11T09:30:44;99519.19;;;27.06;35.14
4167;BME280;2097;51.104;7.150;2022-08-11T09:35:41;99514.53;;;27.31;34.88
4167;BME280;2097;51.104;7.150;2022-08-11T09:38:11;99517.97;;;27.39;35.01
4167;BME280;2097;51.104;7.150;2022-08-11T09:40:57;99512.94;;;27.44;34.41
4167;BME280;2097;51.104;7.150;2022-08-11T09:43:27;99488.06;;;27.29;34.10
4167;BME280;2097;51.104;7.150;2022-08-11T09:46:12;99511.13;;;27.45;34.14
4167;BME280;2097;51.104;7.150;2022-08-11T09:48:43;99501.63;;;27.42;34.06
4167;BME280;2097;51.104;7.150;2022-08-11T09:51:11;99509.53;;;27.58;33.94
4167;BME280;2097;51.104;7.150;2022-08-11T09:53:40;99508.50;;;27.67;33.79
4167;BME280;2097;51.104;7.150;2022-08-11T09:56:11;99513.28;;;27.72;33.78
4167;BME280;2097;51.104;7.150;2022-08-11T09:58:57;99503.97;;;27.90;33.68
4167;BME280;2097;51.104;7.150;2022-08-11T10:01:30;99503.53;;;28.01;33.45
4167;BME280;2097;51.104;7.150;2022-08-11T10:04:03;99501.41;;;28.11;33.01
4167;BME280;2097;51.104;7.150;2022-08-11T10:06:33;99462.53;;;27.80;33.31
4167;BME280;2097;51.104;7.150;2022-08-11T10:09:21;99498.56;;;28.12;33.13
4167;BME280;2097;51.104;7.150;2022-08-11T10:11:52;99492.31;;;28.20;32.84
4167;BME280;2097;51.104;7.150;2022-08-11T10:14:23;99499.19;;;28.37;32.53
4167;BME280;2097;51.104;7.150;2022-08-11T10:17:09;99491.91;;;28.45;32.57
4167;BME280;2097;51.104;7.150;2022-08-11T10:19:38;99487.56;;;28.59;32.12
4167;BME280;2097;51.104;7.150;2022-08-11T10:22:05;99491.44;;;28.71;32.02
4167;BME280;2097;51.104;7.150;2022-08-11T10:24:51;99491.59;;;28.84;31.97
4167;BME280;2097;51.104;7.150;2022-08-11T10:27:37;99489.31;;;28.95;31.69
4167;BME280;2097;51.104;7.150;2022-08-11T10:30:07;99480.38;;;29.03;31.21
4167;BME280;2097;51.104;7.150;2022-08-11T10:32:49;99480.09;;;28.98;31.24
4167;BME280;2097;51.104;7.150;2022-08-11T10:35:34;99464.78;;;28.92;30.92
4167;BME280;2097;51.104;7.150;2022-08-11T10:38:02;99477.59;;;28.96;31.13
4167;BME280;2097;51.104;7.150;2022-08-11T10:40:29;99483.94;;;29.10;31.15
4167;BME280;2097;51.104;7.150;2022-08-11T10:42:59;99469.03;;;29.21;30.97
4167;BME280;2097;51.104;7.150;2022-08-11T10:45:34;99477.00;;;29.36;30.55
4167;BME280;2097;51.104;7.150;2022-08-11T10:48:21;99465.13;;;29.38;30.63
4167;BME280;2097;51.104;7.150;2022-08-11T10:50:50;99460.25;;;29.27;30.79
4167;BME280;2097;51.104;7.150;2022-08-11T10:53:37;99468.44;;;29.40;30.52
4167;BME280;2097;51.104;7.150;2022-08-11T10:56:22;99467.44;;;29.62;30.82
4167;BME280;2097;51.104;7.150;2022-08-11T10:59:07;99465.00;;;29.67;30.38
4167;BME280;2097;51.104;7.150;2022-08-11T11:01:40;99462.72;;;29.64;30.27
4167;BME280;2097;51.104;7.150;2022-08-11T11:04:11;99458.25;;;29.71;30.46
4167;BME280;2097;51.104;7.150;2022-08-11T11:06:45;99455.63;;;29.78;29.64
4167;BME280;2097;51.104;7.150;2022-08-11T11:09:17;99448.72;;;29.90;29.72
4167;BME280;2097;51.104;7.150;2022-08-11T11:11:52;99446.34;;;30.01;29.41
4167;BME280;2097;51.104;7.150;2022-08-11T11:14:40;99437.41;;;30.15;29.35
4167;BME280;2097;51.104;7.150;2022-08-11T11:17:28;99436.44;;;30.29;29.36
4167;BME280;2097;51.104;7.150;2022-08-11T11:20:17;99443.53;;;30.43;29.54
4167;BME280;2097;51.104;7.150;2022-08-11T11:22:49;99436.94;;;30.45;29.33
4167;BME280;2097;51.104;7.150;2022-08-11T11:25:21;99422.50;;;30.40;28.88
4167;BME280;2097;51.104;7.150;2022-08-11T11:27:56;99433.47;;;30.51;29.52
4167;BME280;2097;51.104;7.150;2022-08-11T11:30:32;99428.41;;;30.63;28.80
4167;BME280;2097;51.104;7.150;2022-08-11T11:33:07;99433.81;;;30.69;28.74
4167;BME280;2097;51.104;7.150;2022-08-11T11:35:45;99422.25;;;30.69;28.72
4167;BME280;2097;51.104;7.150;2022-08-11T11:38:14;99429.72;;;30.80;28.68
4167;BME280;2097;51.104;7.150;2022-08-11T11:40:42;99363.03;;;30.64;28.17
4167;BME280;2097;51.104;7.150;2022-08-11T11:43:32;99420.16;;;31.11;28.31
4167;BME280;2097;51.104;7.150;2022-08-11T11:46:01;99418.69;;;31.09;27.83
4167;BME280;2097;51.104;7.150;2022-08-11T11:48:30;99418.84;;;31.01;27.89
4167;BME280;2097;51.104;7.150;2022-08-11T11:50:58;99413.06;;;30.97;28.00
4167;BME280;2097;51.104;7.150;2022-08-11T11:53:26;99408.31;;;31.06;27.83
4167;BME280;2097;51.104;7.150;2022-08-11T11:55:53;99406.34;;;31.21;27.57
4167;BME280;2097;51.104;7.150;2022-08-11T11:58:21;99412.72;;;31.33;27.64
4167;BME280;2097;51.104;7.150;2022-08-11T12:01:07;99400.97;;;31.47;27.16
4167;BME280;2097;51.104;7.150;2022-08-11T12:03:48;99400.38;;;31.57;27.40
4167;BME280;2097;51.104;7.150;2022-08-11T12:06:17;99376.41;;;31.50;27.31
4167;BME280;2097;51.104;7.150;2022-08-11T12:08:47;99398.97;;;31.61;27.33
4167;BME280;2097;51.104;7.150;2022-08-11T12:11:15;99391.72;;;31.62;27.07
4167;BME280;2097;51.104;7.150;2022-08-11T12:14:03;99391.31;;;31.65;27.40
4167;BME280;2097;51.104;7.150;2022-08-11T12:16:33;99395.88;;;31.64;27.04
4167;BME280;2097;51.104;7.150;2022-08-11T12:19:04;99401.22;;;31.77;27.02
4167;BME280;2097;51.104;7.150;2022-08-11T12:21:33;99396.88;;;31.83;26.97
4167;BME280;2097;51.104;7.150;2022-08-11T12:24:01;99387.16;;;31.75;26.67
4167;BME280;2097;51.104;7.150;2022-08-11T12:26:46;99378.50;;;31.80;26.72
4167;BME280;2097;51.104;7.150;2022-08-11T12:29:36;99378.25;;;31.88;26.85
4167;BME280;2097;51.104;7.150;2022-08-11T12:32:06;99377.84;;;31.91;26.89
4167;BME280;2097;51.104;7.150;2022-08-11T12:34:35;99365.00;;;32.06;26.74
4167;BME280;2097;51.104;7.150;2022-08-11T12:37:03;99349.69;;;32.06;26.58
4167;BME280;2097;51.104;7.150;2022-08-11T12:39:36;99360.25;;;32.14;26.48
4167;BME280;2097;51.104;7.150;2022-08-11T12:42:21;99358.59;;;32.20;26.39
4167;BME280;2097;51.104;7.150;2022-08-11T12:45:10;99354.03;;;32.20;26.28
4167;BME280;2097;51.104;7.150;2022-08-11T12:48:03;99354.22;;;32.25;27.19
4167;BME280;2097;51.104;7.150;2022-08-11T12:50:54;99342.59;;;32.38;26.99
4167;BME280;2097;51.104;7.150;2022-08-11T12:53:44;99350.25;;;32.41;26.36
4167;BME280;2097;51.104;7.150;2022-08-11T12:56:12;99296.13;;;32.11;26.55
4167;BME280;2097;51.104;7.150;2022-08-11T12:58:57;99333.44;;;32.45;26.59
4167;BME280;2097;51.104;7.150;2022-08-11T13:01:43;99338.16;;;32.56;26.54
4167;BME280;2097;51.104;7.150;2022-08-11T13:04:28;99320.81;;;32.52;26.11
4167;BME280;2097;51.104;7.150;2022-08-11T13:07:14;99329.44;;;32.61;26.08
4167;BME280;2097;51.104;7.150;2022-08-11T13:09:43;99325.13;;;32.66;26.15
4167;BME280;2097;51.104;7.150;2022-08-11T13:12:11;99326.91;;;32.78;25.89
4167;BME280;2097;51.104;7.150;2022-08-11T13:14:56;99324.69;;;32.69;25.94
4167;BME280;2097;51.104;7.150;2022-08-11T13:17:25;99320.53;;;32.73;25.85
4167;BME280;2097;51.104;7.150;2022-08-11T13:19:54;99321.47;;;32.85;25.68
4167;BME280;2097;51.104;7.150;2022-08-11T13:22:25;99326.59;;;32.93;25.70
4167;BME280;2097;51.104;7.150;2022-08-11T13:24:54;99321.41;;;32.98;25.37
4167;BME280;2097;51.104;7.150;2022-08-11T13:27:23;99319.47;;;33.05;25.14
4167;BME280;2097;51.104;7.150;2022-08-11T13:29:50;99317.84;;;33.04;25.34
4167;BME280;2097;51.104;7.150;2022-08-11T13:32:39;99317.84;;;33.04;25.70
4167;BME280;2097;51.104;7.150;2022-08-11T13:35:08;99296.81;;;33.19;25.07
4167;BME280;2097;51.104;7.150;2022-08-11T13:37:41;99310.78;;;33.34;24.79
4167;BME280;2097;51.104;7.150;2022-08-11T13:40:10;99298.25;;;33.46;24.74
4167;BME280;2097;51.104;7.150;2022-08-11T13:42:39;99305.59;;;33.57;24.64
4167;BME280;2097;51.104;7.150;2022-08-11T13:45:07;99301.75;;;33.71;24.81
4167;BME280;2097;51.104;7.150;2022-08-11T13:47:36;99302.00;;;33.87;24.39
4167;BME280;2097;51.104;7.150;2022-08-11T13:50:05;99301.41;;;33.85;24.14
4167;BME280;2097;51.104;7.150;2022-08-11T13:52:33;99301.19;;;33.87;24.50
4167;BME280;2097;51.104;7.150;2022-08-11T13:55:02;99295.63;;;33.99;23.85
4167;BME280;2097;51.104;7.150;2022-08-11T13:57:30;99292.56;;;33.96;23.96
4167;BME280;2097;51.104;7.150;2022-08-11T13:59:59;99239.78;;;33.89;23.79
4167;BME280;2097;51.104;7.150;2022-08-11T14:02:37;99292.22;;;34.58;23.33
4167;BME280;2097;51.104;7.150;2022-08-11T14:05:09;99291.16;;;34.88;23.21
4167;BME280;2097;51.104;7.150;2022-08-11T14:07:38;99283.75;;;35.24;23.64
4167;BME280;2097;51.104;7.150;2022-08-11T14:10:11;99281.56;;;35.56;22.94
4167;BME280;2097;51.104;7.150;2022-08-11T14:12:40;99278.84;;;35.67;22.79
4167;BME280;2097;51.104;7.150;2022-08-11T14:15:29;99281.97;;;35.87;22.18
4167;BME280;2097;51.104;7.150;2022-08-11T14:17:59;99172.06;;;35.30;22.05
4167;BME280;2097;51.104;7.150;2022-08-11T14:20:31;99290.06;;;36.22;22.25
4167;BME280;2097;51.104;7.150;2022-08-11T14:23:23;99244.84;;;36.34;22.10
4167;BME280;2097;51.104;7.150;2022-08-11T14:25:53;99276.78;;;36.76;21.95
4167;BME280;2097;51.104;7.150;2022-08-11T14:28:37;99278.25;;;36.95;21.74
4167;BME280;2097;51.104;7.150;2022-08-11T14:31:06;99277.69;;;37.26;21.78
4167;BME280;2097;51.104;7.150;2022-08-11T14:33:34;99279.47;;;37.37;21.09
4167;BME280;2097;51.104;7.150;2022-08-11T14:36:02;99271.78;;;37.45;20.62
4167;BME280;2097;51.104;7.150;2022-08-11T14:38:31;99272.50;;;37.57;20.82
4167;BME280;2097;51.104;7.150;2022-08-11T14:41:00;99269.41;;;37.86;20.51
4167;BME280;2097;51.104;7.150;2022-08-11T14:43:45;99276.13;;;38.00;21.17
4167;BME280;2097;51.104;7.150;2022-08-11T14:46:30;99182.63;;;37.86;20.52
4167;BME280;2097;51.104;7.150;2022-08-11T14:49:16;99264.97;;;38.66;20.66
4167;BME280;2097;51.104;7.150;2022-08-11T14:51:44;99256.78;;;38.88;20.30
4167;BME280;2097;51.104;7.150;2022-08-11T14:54:11;99254.69;;;38.99;19.99
4167;BME280;2097;51.104;7.150;2022-08-11T14:56:57;99261.69;;;38.91;20.18
4167;BME280;2097;51.104;7.150;2022-08-11T14:59:25;99252.16;;;38.88;20.17
4167;BME280;2097;51.104;7.150;2022-08-11T15:01:52;99254.44;;;39.01;20.08
4167;BME280;2097;51.104;7.150;2022-08-11T15:04:37;99261.50;;;39.02;19.91
4167;BME280;2097;51.104;7.150;2022-08-11T15:07:04;99247.84;;;38.92;19.64
4167;BME280;2097;51.104;7.150;2022-08-11T15:09:31;99246.81;;;38.98;20.00
4167;BME280;2097;51.104;7.150;2022-08-11T15:12:00;99229.59;;;38.88;19.90
4167;BME280;2097;51.104;7.150;2022-08-11T15:14:41;99241.09;;;39.31;19.88
4167;BME280;2097;51.104;7.150;2022-08-11T15:17:27;99200.41;;;39.41;19.64
4167;BME280;2097;51.104;7.150;2022-08-11T15:19:55;99228.66;;;39.86;19.63
4167;BME280;2097;51.104;7.150;2022-08-11T15:22:41;99230.31;;;39.87;19.52
4167;BME280;2097;51.104;7.150;2022-08-11T15:25:26;99231.81;;;39.63;19.65
4167;BME280;2097;51.104;7.150;2022-08-11T15:27:56;99227.69;;;40.07;19.37
4167;BME280;2097;51.104;7.150;2022-08-11T15:30:43;98929.53;;;38.54;19.32